Nevada, Iowa
Current Conditions -  °F | °C
As of 4:53 AM on Thursday 18 Dec 2014 (Local Time) from KAMW Reporting Station
Overcast Overcast  
Wind Chill: 13°   Ceiling: 8500
Heat Index: 20°   Visibility: 10mi
Dew Point: 15°   Wind: 5mph
Humidity: 81%   Direction: 110°ESE
Pressure: 30.28"   Gusts: NA
Location:  42.02°N, 93.45°W
Report Text: KAMW 181053Z AUTO 11004KT 10SM OVC085 M07/M09 A3028 RMK AO2 SLP264 T10671094
Loading
Personal Weather Stations






























Interactive Weather Map New forecast layout! Learn more

10-Day Weather Forecast

Advertisements
Track Severe Weather on mobile